sensor_id;sensor_type;location;lat;lon;timestamp;pressure;altitude;pressure_sealevel;temperature;humidity
8890;BME280;4481;43.406;24.454;2023-02-16T00:01:21;79609.97;;;-144.09;100.00
8890;BME280;4481;43.406;24.454;2023-02-16T00:03:49;79566.03;;;-144.09;100.00
8890;BME280;4481;43.406;24.454;2023-02-16T00:06:16;79566.03;;;-144.09;100.00
8890;BME280;4481;43.406;24.454;2023-02-16T00:08:44;79597.41;;;-144.09;100.00
8890;BME280;4481;43.406;24.454;2023-02-16T00:11:17;79601.59;;;-144.09;100.00
8890;BME280;4481;43.406;24.454;2023-02-16T00:14:04;79616.22;;;-144.09;100.00
8890;BME280;4481;43.406;24.454;2023-02-16T00:16:31;79609.97;;;-144.09;100.00
8890;BME280;4481;43.406;24.454;2023-02-16T00:18:57;79630.88;;;-144.09;100.00
8890;BME280;4481;43.406;24.454;2023-02-16T00:21:24;79626.69;;;-144.09;100.00
8890;BME280;4481;43.406;24.454;2023-02-16T00:23:51;79603.69;;;-144.09;100.00
8890;BME280;4481;43.406;24.454;2023-02-16T00:26:19;79620.41;;;-144.09;100.00
8890;BME280;4481;43.406;24.454;2023-02-16T00:28:48;79618.31;;;-144.09;100.00
8890;BME280;4481;43.406;24.454;2023-02-16T00:31:16;79620.41;;;-144.09;100.00
8890;BME280;4481;43.406;24.454;2023-02-16T00:33:43;79628.78;;;-144.09;100.00
8890;BME280;4481;43.406;24.454;2023-02-16T00:36:09;79616.22;;;-144.09;100.00
8890;BME280;4481;43.406;24.454;2023-02-16T00:38:35;79622.50;;;-144.09;100.00
8890;BME280;4481;43.406;24.454;2023-02-16T00:41:02;79649.69;;;-144.09;100.00
8890;BME280;4481;43.406;24.454;2023-02-16T00:43:29;79655.97;;;-144.09;100.00
8890;BME280;4481;43.406;24.454;2023-02-16T00:45:56;79653.88;;;-144.09;100.00
8890;BME280;4481;43.406;24.454;2023-02-16T00:48:22;79664.34;;;-144.09;100.00
8890;BME280;4481;43.406;24.454;2023-02-16T00:50:49;79658.06;;;-144.09;100.00
8890;BME280;4481;43.406;24.454;2023-02-16T00:53:15;79658.06;;;-144.09;100.00
8890;BME280;4481;43.406;24.454;2023-02-16T00:55:42;79674.78;;;-144.09;100.00
8890;BME280;4481;43.406;24.454;2023-02-16T00:58:15;79676.88;;;-144.09;100.00
8890;BME280;4481;43.406;24.454;2023-02-16T01:00:48;79666.44;;;-144.09;100.00
8890;BME280;4481;43.406;24.454;2023-02-16T01:03:18;79635.06;;;-144.09;100.00
8890;BME280;4481;43.406;24.454;2023-02-16T01:05:45;79664.34;;;-144.09;100.00
8890;BME280;4481;43.406;24.454;2023-02-16T01:08:13;79651.78;;;-144.09;100.00
8890;BME280;4481;43.406;24.454;2023-02-16T01:10:59;79649.69;;;-144.09;100.00
8890;BME280;4481;43.406;24.454;2023-02-16T01:13:40;79641.34;;;-144.09;100.00
8890;BME280;4481;43.406;24.454;2023-02-16T01:16:12;79676.88;;;-144.09;100.00
8890;BME280;4481;43.406;24.454;2023-02-16T01:18:39;79685.25;;;-144.09;100.00
8890;BME280;4481;43.406;24.454;2023-02-16T01:21:05;79701.97;;;-144.09;100.00
8890;BME280;4481;43.406;24.454;2023-02-16T01:23:31;79704.06;;;-144.09;100.00
8890;BME280;4481;43.406;24.454;2023-02-16T01:25:57;79672.69;;;-144.09;100.00
8890;BME280;4481;43.406;24.454;2023-02-16T01:28:24;79674.78;;;-144.09;100.00
8890;BME280;4481;43.406;24.454;2023-02-16T01:30:52;79658.06;;;-144.09;100.00
8890;BME280;4481;43.406;24.454;2023-02-16T01:33:18;79687.34;;;-144.09;100.00
8890;BME280;4481;43.406;24.454;2023-02-16T01:35:45;79672.69;;;-144.09;100.00
8890;BME280;4481;43.406;24.454;2023-02-16T01:38:15;79668.53;;;-144.09;100.00
8890;BME280;4481;43.406;24.454;2023-02-16T01:40:47;79691.53;;;-144.09;100.00
8890;BME280;4481;43.406;24.454;2023-02-16T01:43:19;79706.16;;;-144.09;100.00
8890;BME280;4481;43.406;24.454;2023-02-16T01:45:50;79683.16;;;-144.09;100.00
8890;BME280;4481;43.406;24.454;2023-02-16T01:48:24;79664.34;;;-144.09;100.00
8890;BME280;4481;43.406;24.454;2023-02-16T01:50:55;79683.16;;;-144.09;100.00
8890;BME280;4481;43.406;24.454;2023-02-16T01:53:30;79685.25;;;-144.09;100.00
8890;BME280;4481;43.406;24.454;2023-02-16T01:56:00;79651.78;;;-144.09;100.00
8890;BME280;4481;43.406;24.454;2023-02-16T01:58:34;79660.16;;;-144.09;100.00
8890;BME280;4481;43.406;24.454;2023-02-16T02:01:43;79683.16;;;-144.09;100.00
8890;BME280;4481;43.406;24.454;2023-02-16T02:04:20;79678.97;;;-144.09;100.00
8890;BME280;4481;43.406;24.454;2023-02-16T02:07:05;79695.72;;;-144.09;100.00
8890;BME280;4481;43.406;24.454;2023-02-16T02:09:36;79689.44;;;-144.09;100.00
8890;BME280;4481;43.406;24.454;2023-02-16T02:12:09;79699.88;;;-144.09;100.00
8890;BME280;4481;43.406;24.454;2023-02-16T02:14:41;79683.16;;;-144.09;100.00
8890;BME280;4481;43.406;24.454;2023-02-16T02:17:10;79693.63;;;-144.09;100.00
8890;BME280;4481;43.406;24.454;2023-02-16T02:19:44;79666.44;;;-144.09;100.00
8890;BME280;4481;43.406;24.454;2023-02-16T02:22:43;79689.44;;;-144.09;100.00
8890;BME280;4481;43.406;24.454;2023-02-16T02:28:32;79693.63;;;-144.09;100.00
8890;BME280;4481;43.406;24.454;2023-02-16T02:31:02;79704.06;;;-144.09;100.00
8890;BME280;4481;43.406;24.454;2023-02-16T02:33:41;79706.16;;;-144.09;100.00
8890;BME280;4481;43.406;24.454;2023-02-16T02:36:18;79712.44;;;-144.09;100.00
8890;BME280;4481;43.406;24.454;2023-02-16T02:38:56;79725.00;;;-144.09;100.00
8890;BME280;4481;43.406;24.454;2023-02-16T02:41:31;79729.16;;;-144.09;100.00
8890;BME280;4481;43.406;24.454;2023-02-16T02:44:19;79725.00;;;-144.09;100.00
8890;BME280;4481;43.406;24.454;2023-02-16T02:46:46;79714.53;;;-144.09;100.00
8890;BME280;4481;43.406;24.454;2023-02-16T02:49:12;79693.63;;;-144.09;100.00
8890;BME280;4481;43.406;24.454;2023-02-16T02:51:38;79701.97;;;-144.09;100.00
8890;BME280;4481;43.406;24.454;2023-02-16T02:54:07;79716.63;;;-144.09;100.00
8890;BME280;4481;43.406;24.454;2023-02-16T02:56:52;79722.91;;;-144.09;100.00
8890;BME280;4481;43.406;24.454;2023-02-16T02:59:42;79720.81;;;-144.09;100.00
8890;BME280;4481;43.406;24.454;2023-02-16T03:02:27;79729.16;;;-144.09;100.00
8890;BME280;4481;43.406;24.454;2023-02-16T03:04:56;79714.53;;;-144.09;100.00
8890;BME280;4481;43.406;24.454;2023-02-16T03:07:24;79712.44;;;-144.09;100.00
8890;BME280;4481;43.406;24.454;2023-02-16T03:10:11;79714.53;;;-144.09;100.00
8890;BME280;4481;43.406;24.454;2023-02-16T03:12:57;79708.25;;;-144.09;100.00
8890;BME280;4481;43.406;24.454;2023-02-16T03:15:25;79725.00;;;-144.09;100.00
8890;BME280;4481;43.406;24.454;2023-02-16T03:17:54;79729.16;;;-144.09;100.00
8890;BME280;4481;43.406;24.454;2023-02-16T03:20:40;79727.09;;;-144.09;100.00
8890;BME280;4481;43.406;24.454;2023-02-16T03:23:25;79729.16;;;-144.09;100.00
8890;BME280;4481;43.406;24.454;2023-02-16T03:26:09;79731.25;;;-144.09;100.00
8890;BME280;4481;43.406;24.454;2023-02-16T03:28:54;79725.00;;;-144.09;100.00
8890;BME280;4481;43.406;24.454;2023-02-16T03:31:40;79718.72;;;-144.09;100.00
8890;BME280;4481;43.406;24.454;2023-02-16T03:34:07;79725.00;;;-144.09;100.00
8890;BME280;4481;43.406;24.454;2023-02-16T03:36:37;79739.63;;;-144.09;100.00
8890;BME280;4481;43.406;24.454;2023-02-16T03:39:05;79748.00;;;-144.09;100.00
8890;BME280;4481;43.406;24.454;2023-02-16T03:41:33;79739.63;;;-144.09;100.00
8890;BME280;4481;43.406;24.454;2023-02-16T03:44:03;79739.63;;;-144.09;100.00
8890;BME280;4481;43.406;24.454;2023-02-16T03:46:29;79722.91;;;-144.09;100.00
8890;BME280;4481;43.406;24.454;2023-02-16T03:48:56;79712.44;;;-144.09;100.00
8890;BME280;4481;43.406;24.454;2023-02-16T03:51:23;79714.53;;;-144.09;100.00
8890;BME280;4481;43.406;24.454;2023-02-16T03:53:49;79729.16;;;-144.09;100.00
8890;BME280;4481;43.406;24.454;2023-02-16T03:56:15;79712.44;;;-144.09;100.00
8890;BME280;4481;43.406;24.454;2023-02-16T03:58:41;79718.72;;;-144.09;100.00
8890;BME280;4481;43.406;24.454;2023-02-16T04:01:07;79718.72;;;-144.09;100.00
8890;BME280;4481;43.406;24.454;2023-02-16T04:03:33;79743.81;;;-144.09;100.00
8890;BME280;4481;43.406;24.454;2023-02-16T04:06:01;79741.72;;;-144.09;100.00
8890;BME280;4481;43.406;24.454;2023-02-16T04:08:27;79764.72;;;-144.09;100.00
8890;BME280;4481;43.406;24.454;2023-02-16T04:10:53;79752.19;;;-144.09;100.00
8890;BME280;4481;43.406;24.454;2023-02-16T04:13:21;79754.28;;;-144.09;100.00
8890;BME280;4481;43.406;24.454;2023-02-16T04:15:47;79727.09;;;-144.09;100.00
8890;BME280;4481;43.406;24.454;2023-02-16T04:18:14;79727.09;;;-144.09;100.00
8890;BME280;4481;43.406;24.454;2023-02-16T04:20:40;79745.91;;;-144.09;100.00
8890;BME280;4481;43.406;24.454;2023-02-16T04:23:07;79725.00;;;-144.09;100.00
8890;BME280;4481;43.406;24.454;2023-02-16T04:25:33;79750.09;;;-144.09;100.00
8890;BME280;4481;43.406;24.454;2023-02-16T04:28:00;79758.44;;;-144.09;100.00
8890;BME280;4481;43.406;24.454;2023-02-16T04:30:28;79760.53;;;-144.09;100.00
8890;BME280;4481;43.406;24.454;2023-02-16T04:32:54;79777.28;;;-144.09;100.00
8890;BME280;4481;43.406;24.454;2023-02-16T04:35:21;79771.00;;;-144.09;100.00
8890;BME280;4481;43.406;24.454;2023-02-16T04:37:47;79766.81;;;-144.09;100.00
8890;BME280;4481;43.406;24.454;2023-02-16T04:40:15;79768.91;;;-144.09;100.00
8890;BME280;4481;43.406;24.454;2023-02-16T04:42:42;79785.66;;;-144.09;100.00
8890;BME280;4481;43.406;24.454;2023-02-16T04:45:09;79783.56;;;-144.09;100.00
8890;BME280;4481;43.406;24.454;2023-02-16T04:47:36;79779.38;;;-144.09;100.00
8890;BME280;4481;43.406;24.454;2023-02-16T04:50:02;79764.72;;;-144.09;100.00
8890;BME280;4481;43.406;24.454;2023-02-16T04:52:28;79777.28;;;-144.09;100.00
8890;BME280;4481;43.406;24.454;2023-02-16T04:54:55;79785.66;;;-144.09;100.00
8890;BME280;4481;43.406;24.454;2023-02-16T04:57:23;79779.38;;;-144.09;100.00
8890;BME280;4481;43.406;24.454;2023-02-16T04:59:49;79787.72;;;-144.09;100.00
8890;BME280;4481;43.406;24.454;2023-02-16T05:02:15;79791.91;;;-144.09;100.00
8890;BME280;4481;43.406;24.454;2023-02-16T05:04:41;79804.47;;;-144.09;100.00
8890;BME280;4481;43.406;24.454;2023-02-16T05:07:08;79814.94;;;-144.09;100.00
8890;BME280;4481;43.406;24.454;2023-02-16T05:09:34;79794.00;;;-144.09;100.00
8890;BME280;4481;43.406;24.454;2023-02-16T05:12:00;79812.84;;;-144.09;100.00
8890;BME280;4481;43.406;24.454;2023-02-16T05:14:44;79800.28;;;-144.09;100.00
8890;BME280;4481;43.406;24.454;2023-02-16T05:17:13;79806.56;;;-144.09;100.00
8890;BME280;4481;43.406;24.454;2023-02-16T05:19:40;79827.47;;;-144.09;100.00
8890;BME280;4481;43.406;24.454;2023-02-16T05:22:07;79814.94;;;-144.09;100.00
8890;BME280;4481;43.406;24.454;2023-02-16T05:24:33;79812.84;;;-144.09;100.00
8890;BME280;4481;43.406;24.454;2023-02-16T05:26:59;79806.56;;;-144.09;100.00
8890;BME280;4481;43.406;24.454;2023-02-16T05:29:25;79802.38;;;-144.09;100.00
8890;BME280;4481;43.406;24.454;2023-02-16T05:31:52;79794.00;;;-144.09;100.00
8890;BME280;4481;43.406;24.454;2023-02-16T05:34:18;79804.47;;;-144.09;100.00
8890;BME280;4481;43.406;24.454;2023-02-16T05:36:44;79810.75;;;-144.09;100.00
8890;BME280;4481;43.406;24.454;2023-02-16T05:39:11;79802.38;;;-144.09;100.00
8890;BME280;4481;43.406;24.454;2023-02-16T05:41:37;79794.00;;;-144.09;100.00
8890;BME280;4481;43.406;24.454;2023-02-16T05:44:04;79787.72;;;-144.09;100.00
8890;BME280;4481;43.406;24.454;2023-02-16T05:46:34;79773.09;;;-144.09;100.00
8890;BME280;4481;43.406;24.454;2023-02-16T05:49:02;79771.00;;;-144.09;100.00
8890;BME280;4481;43.406;24.454;2023-02-16T05:51:29;79771.00;;;-144.09;100.00
8890;BME280;4481;43.406;24.454;2023-02-16T05:53:56;79785.66;;;-144.09;100.00
8890;BME280;4481;43.406;24.454;2023-02-16T05:56:23;79783.56;;;-144.09;100.00
8890;BME280;4481;43.406;24.454;2023-02-16T05:58:49;79756.38;;;-144.09;100.00
8890;BME280;4481;43.406;24.454;2023-02-16T06:01:17;79748.00;;;-144.09;100.00
8890;BME280;4481;43.406;24.454;2023-02-16T06:03:43;79725.00;;;-144.09;100.00
8890;BME280;4481;43.406;24.454;2023-02-16T06:06:11;79741.72;;;-144.09;100.00
8890;BME280;4481;43.406;24.454;2023-02-16T06:08:37;79739.63;;;-144.09;100.00
8890;BME280;4481;43.406;24.454;2023-02-16T06:11:04;79762.63;;;-144.09;100.00
8890;BME280;4481;43.406;24.454;2023-02-16T06:13:31;79725.00;;;-144.09;100.00
8890;BME280;4481;43.406;24.454;2023-02-16T06:15:57;79708.25;;;-144.09;100.00
8890;BME280;4481;43.406;24.454;2023-02-16T06:18:24;79708.25;;;-144.09;100.00
8890;BME280;4481;43.406;24.454;2023-02-16T06:20:51;79697.78;;;-144.09;100.00
8890;BME280;4481;43.406;24.454;2023-02-16T06:23:19;79689.44;;;-144.09;100.00
8890;BME280;4481;43.406;24.454;2023-02-16T06:25:48;79687.34;;;-144.09;100.00
8890;BME280;4481;43.406;24.454;2023-02-16T06:28:15;79693.63;;;-144.09;100.00
8890;BME280;4481;43.406;24.454;2023-02-16T06:30:41;79660.16;;;-144.09;100.00
8890;BME280;4481;43.406;24.454;2023-02-16T06:33:07;79635.06;;;-144.09;100.00
8890;BME280;4481;43.406;24.454;2023-02-16T06:35:33;79641.34;;;-144.09;100.00
8890;BME280;4481;43.406;24.454;2023-02-16T06:38:00;79637.16;;;-144.09;100.00
8890;BME280;4481;43.406;24.454;2023-02-16T06:40:26;79609.97;;;-144.09;100.00
8890;BME280;4481;43.406;24.454;2023-02-16T06:42:54;79597.41;;;-144.09;100.00
8890;BME280;4481;43.406;24.454;2023-02-16T06:45:20;79568.13;;;-144.09;100.00
8890;BME280;4481;43.406;24.454;2023-02-16T06:47:47;79553.50;;;-144.09;100.00
8890;BME280;4481;43.406;24.454;2023-02-16T06:50:13;79532.56;;;-144.09;100.00
8890;BME280;4481;43.406;24.454;2023-02-16T06:52:39;79520.03;;;-144.09;100.00
8890;BME280;4481;43.406;24.454;2023-02-16T06:55:06;79490.75;;;-144.09;100.00
8890;BME280;4481;43.406;24.454;2023-02-16T06:57:33;79494.94;;;-144.09;100.00
8890;BME280;4481;43.406;24.454;2023-02-16T06:59:59;79455.19;;;-144.09;100.00
8890;BME280;4481;43.406;24.454;2023-02-16T07:02:25;79421.75;;;-144.09;100.00
8890;BME280;4481;43.406;24.454;2023-02-16T07:04:51;79386.19;;;-144.09;100.00
8890;BME280;4481;43.406;24.454;2023-02-16T07:07:18;79356.91;;;-144.09;100.00
8890;BME280;4481;43.406;24.454;2023-02-16T07:09:45;79323.44;;;-144.09;99.78
8890;BME280;4481;43.406;24.454;2023-02-16T07:12:11;79315.09;;;-144.09;99.47
8890;BME280;4481;43.406;24.454;2023-02-16T07:14:38;79281.63;;;-144.09;99.23
8890;BME280;4481;43.406;24.454;2023-02-16T07:17:04;79294.16;;;-144.09;98.95
8890;BME280;4481;43.406;24.454;2023-02-16T07:19:32;79273.25;;;-144.09;98.78
8890;BME280;4481;43.406;24.454;2023-02-16T07:21:58;79262.81;;;-144.09;98.74
8890;BME280;4481;43.406;24.454;2023-02-16T07:24:24;79227.25;;;-144.09;97.84
8890;BME280;4481;43.406;24.454;2023-02-16T07:26:51;79189.59;;;-144.09;97.41
8890;BME280;4481;43.406;24.454;2023-02-16T07:29:17;79172.88;;;-144.09;96.99
8890;BME280;4481;43.406;24.454;2023-02-16T07:31:44;79162.44;;;-144.09;96.96
8890;BME280;4481;43.406;24.454;2023-02-16T07:34:11;79133.16;;;-144.09;96.04
8890;BME280;4481;43.406;24.454;2023-02-16T07:36:37;79105.97;;;-144.09;96.17
8890;BME280;4481;43.406;24.454;2023-02-16T07:39:03;79085.06;;;-144.09;95.86
8890;BME280;4481;43.406;24.454;2023-02-16T07:41:29;79057.88;;;-144.09;95.28
8890;BME280;4481;43.406;24.454;2023-02-16T07:43:55;79041.13;;;-144.09;94.21
8890;BME280;4481;43.406;24.454;2023-02-16T07:46:22;79013.97;;;-144.09;93.79
8890;BME280;4481;43.406;24.454;2023-02-16T07:48:49;78993.03;;;-144.09;93.13
8890;BME280;4481;43.406;24.454;2023-02-16T07:51:20;78976.31;;;-144.09;92.89
8890;BME280;4481;43.406;24.454;2023-02-16T07:53:46;78961.69;;;-144.09;92.45
8890;BME280;4481;43.406;24.454;2023-02-16T07:56:18;78978.41;;;-144.09;92.93
8890;BME280;4481;43.406;24.454;2023-02-16T07:58:44;78944.94;;;-144.09;92.79
8890;BME280;4481;43.406;24.454;2023-02-16T08:01:12;78924.03;;;-144.09;91.87
8890;BME280;4481;43.406;24.454;2023-02-16T08:03:39;78907.31;;;-144.09;91.76
8890;BME280;4481;43.406;24.454;2023-02-16T08:06:06;78873.84;;;-144.09;91.25
8890;BME280;4481;43.406;24.454;2023-02-16T08:08:33;78888.50;;;-144.09;91.21
8890;BME280;4481;43.406;24.454;2023-02-16T08:11:00;78867.59;;;-144.09;91.43
8890;BME280;4481;43.406;24.454;2023-02-16T08:13:32;78857.13;;;-144.09;91.28
8890;BME280;4481;43.406;24.454;2023-02-16T08:15:58;78834.13;;;-144.09;91.19
8890;BME280;4481;43.406;24.454;2023-02-16T08:18:24;78813.22;;;-144.09;91.00
8890;BME280;4481;43.406;24.454;2023-02-16T08:20:50;78798.59;;;-144.09;90.37
8890;BME280;4481;43.406;24.454;2023-02-16T08:23:17;78783.94;;;-144.09;89.72
8890;BME280;4481;43.406;24.454;2023-02-16T08:25:43;78777.69;;;-144.09;90.54
8890;BME280;4481;43.406;24.454;2023-02-16T08:28:10;78748.41;;;-144.09;89.79
8890;BME280;4481;43.406;24.454;2023-02-16T08:30:39;78737.94;;;-144.09;89.59
8890;BME280;4481;43.406;24.454;2023-02-16T08:33:05;78737.94;;;-144.09;89.20
8890;BME280;4481;43.406;24.454;2023-02-16T08:35:31;78735.84;;;-144.09;89.79
8890;BME280;4481;43.406;24.454;2023-02-16T08:37:58;78725.41;;;-144.09;89.36
8890;BME280;4481;43.406;24.454;2023-02-16T08:40:25;78704.50;;;-144.09;89.39
8890;BME280;4481;43.406;24.454;2023-02-16T08:42:51;78704.50;;;-144.09;89.68
8890;BME280;4481;43.406;24.454;2023-02-16T08:45:17;78708.69;;;-144.09;88.56
8890;BME280;4481;43.406;24.454;2023-02-16T08:47:44;78689.84;;;-144.09;89.11
8890;BME280;4481;43.406;24.454;2023-02-16T08:50:10;78652.22;;;-144.09;88.54
8890;BME280;4481;43.406;24.454;2023-02-16T08:52:36;78633.41;;;-144.09;87.83
8890;BME280;4481;43.406;24.454;2023-02-16T08:55:03;78625.03;;;-144.09;87.21
8890;BME280;4481;43.406;24.454;2023-02-16T08:57:33;78608.31;;;-144.09;87.10
8890;BME280;4481;43.406;24.454;2023-02-16T08:59:59;78597.88;;;-144.09;87.30
8890;BME280;4481;43.406;24.454;2023-02-16T09:02:43;78585.31;;;-144.09;86.46
8890;BME280;4481;43.406;24.454;2023-02-16T09:05:09;78574.88;;;-144.09;85.82
8890;BME280;4481;43.406;24.454;2023-02-16T09:07:35;78564.41;;;-144.09;85.44
8890;BME280;4481;43.406;24.454;2023-02-16T09:10:01;78556.03;;;-144.09;85.47
8890;BME280;4481;43.406;24.454;2023-02-16T09:12:28;78545.59;;;-144.09;85.30
8890;BME280;4481;43.406;24.454;2023-02-16T09:14:56;78524.69;;;-144.09;85.11
8890;BME280;4481;43.406;24.454;2023-02-16T09:17:23;78507.97;;;-144.09;84.87
8890;BME280;4481;43.406;24.454;2023-02-16T09:19:49;78491.22;;;-144.09;83.54
8890;BME280;4481;43.406;24.454;2023-02-16T09:22:15;78491.22;;;-144.09;82.57
8890;BME280;4481;43.406;24.454;2023-02-16T09:24:42;78495.41;;;-144.09;82.07
8890;BME280;4481;43.406;24.454;2023-02-16T09:27:08;78491.22;;;-144.09;81.41
8890;BME280;4481;43.406;24.454;2023-02-16T09:29:34;78514.22;;;-144.09;82.72
8890;BME280;4481;43.406;24.454;2023-02-16T09:32:01;78480.78;;;-144.09;82.05
8890;BME280;4481;43.406;24.454;2023-02-16T09:34:27;78495.41;;;-144.09;82.10
8890;BME280;4481;43.406;24.454;2023-02-16T09:36:54;78457.78;;;-144.09;81.55
8890;BME280;4481;43.406;24.454;2023-02-16T09:39:20;78541.41;;;-144.09;82.93
8890;BME280;4481;43.406;24.454;2023-02-16T09:42:00;78545.59;;;-144.09;83.43
8890;BME280;4481;43.406;24.454;2023-02-16T09:44:35;78489.16;;;-144.09;82.48
8890;BME280;4481;43.406;24.454;2023-02-16T09:47:12;78455.69;;;-144.09;81.49
8890;BME280;4481;43.406;24.454;2023-02-16T09:49:43;78453.59;;;-144.09;81.38
8890;BME280;4481;43.406;24.454;2023-02-16T09:52:15;78447.31;;;-144.09;82.14
8890;BME280;4481;43.406;24.454;2023-02-16T09:54:46;78434.78;;;-144.09;80.53
8890;BME280;4481;43.406;24.454;2023-02-16T09:57:20;78422.25;;;-144.09;80.44
8890;BME280;4481;43.406;24.454;2023-02-16T09:59:51;78484.97;;;-144.09;81.42
8890;BME280;4481;43.406;24.454;2023-02-16T10:02:31;78476.59;;;-144.09;81.76
8890;BME280;4481;43.406;24.454;2023-02-16T10:05:13;78461.97;;;-144.09;81.46
8890;BME280;4481;43.406;24.454;2023-02-16T10:10:44;78478.69;;;-144.09;82.62
8890;BME280;4481;43.406;24.454;2023-02-16T10:13:22;78501.69;;;-144.09;82.89
8890;BME280;4481;43.406;24.454;2023-02-16T10:15:53;78470.31;;;-144.09;81.98
8890;BME280;4481;43.406;24.454;2023-02-16T10:18:26;78503.78;;;-144.09;83.19
8890;BME280;4481;43.406;24.454;2023-02-16T10:20:55;78470.31;;;-144.09;82.69
8890;BME280;4481;43.406;24.454;2023-02-16T10:23:31;78438.97;;;-144.09;82.01
8890;BME280;4481;43.406;24.454;2023-02-16T10:26:05;78397.16;;;-144.09;81.49
8890;BME280;4481;43.406;24.454;2023-02-16T10:28:44;78361.59;;;-144.09;80.82
8890;BME280;4481;43.406;24.454;2023-02-16T10:31:13;78342.78;;;-144.09;80.79
8890;BME280;4481;43.406;24.454;2023-02-16T10:33:43;78359.53;;;-144.09;80.45
8890;BME280;4481;43.406;24.454;2023-02-16T10:36:15;78344.88;;;-144.09;80.51
8890;BME280;4481;43.406;24.454;2023-02-16T10:38:49;78328.16;;;-144.09;80.64
8890;BME280;4481;43.406;24.454;2023-02-16T10:41:26;78307.25;;;-144.09;80.00
8890;BME280;4481;43.406;24.454;2023-02-16T10:43:59;78294.72;;;-144.09;79.76
8890;BME280;4481;43.406;24.454;2023-02-16T10:46:30;78296.81;;;-144.09;79.99
8890;BME280;4481;43.406;24.454;2023-02-16T10:48:59;78288.44;;;-144.09;79.87
8890;BME280;4481;43.406;24.454;2023-02-16T10:51:30;78280.06;;;-144.09;79.58
8890;BME280;4481;43.406;24.454;2023-02-16T10:54:00;78269.63;;;-144.09;78.67
8890;BME280;4481;43.406;24.454;2023-02-16T10:56:51;78300.97;;;-144.09;78.37
8890;BME280;4481;43.406;24.454;2023-02-16T10:59:20;78284.25;;;-144.09;78.03
8890;BME280;4481;43.406;24.454;2023-02-16T11:01:49;78257.06;;;-144.09;77.16
8890;BME280;4481;43.406;24.454;2023-02-16T11:04:34;78255.00;;;-144.09;78.04
8890;BME280;4481;43.406;24.454;2023-02-16T11:07:03;78250.81;;;-144.09;78.20
8890;BME280;4481;43.406;24.454;2023-02-16T11:09:31;78240.34;;;-144.09;77.05
8890;BME280;4481;43.406;24.454;2023-02-16T11:11:58;78246.63;;;-144.09;75.14
8890;BME280;4481;43.406;24.454;2023-02-16T11:14:27;78248.72;;;-144.09;74.07
8890;BME280;4481;43.406;24.454;2023-02-16T11:17:06;78271.72;;;-144.09;75.41
8890;BME280;4481;43.406;24.454;2023-02-16T11:19:37;78292.63;;;-144.09;75.80
8890;BME280;4481;43.406;24.454;2023-02-16T11:22:03;78271.72;;;-144.09;74.35
8890;BME280;4481;43.406;24.454;2023-02-16T11:24:32;78282.16;;;-144.09;74.09
8890;BME280;4481;43.406;24.454;2023-02-16T11:27:00;78313.53;;;-144.09;73.38
8890;BME280;4481;43.406;24.454;2023-02-16T11:29:28;78296.81;;;-144.09;73.97
8890;BME280;4481;43.406;24.454;2023-02-16T11:31:54;78277.97;;;-144.09;73.68
8890;BME280;4481;43.406;24.454;2023-02-16T11:34:28;78290.53;;;-144.09;73.97
8890;BME280;4481;43.406;24.454;2023-02-16T11:37:02;78240.34;;;-144.09;73.71
8890;BME280;4481;43.406;24.454;2023-02-16T11:39:32;78225.72;;;-144.09;73.37
8890;BME280;4481;43.406;24.454;2023-02-16T11:42:02;78229.91;;;-144.09;73.12
8890;BME280;4481;43.406;24.454;2023-02-16T11:44:32;78190.19;;;-144.09;72.25
8890;BME280;4481;43.406;24.454;2023-02-16T11:47:00;78158.81;;;-144.09;71.24
8890;BME280;4481;43.406;24.454;2023-02-16T11:49:30;78142.09;;;-144.09;70.77
8890;BME280;4481;43.406;24.454;2023-02-16T11:51:57;78186.00;;;-144.09;69.92
8890;BME280;4481;43.406;24.454;2023-02-16T11:54:24;78232.00;;;-144.09;70.12
8890;BME280;4481;43.406;24.454;2023-02-16T11:57:02;78225.72;;;-144.09;70.86
8890;BME280;4481;43.406;24.454;2023-02-16T11:59:34;78171.38;;;-144.09;70.35
8890;BME280;4481;43.406;24.454;2023-02-16T12:02:31;78131.66;;;-144.09;69.68
8890;BME280;4481;43.406;24.454;2023-02-16T12:05:21;78102.38;;;-144.09;68.18
8890;BME280;4481;43.406;24.454;2023-02-16T12:08:03;78100.28;;;-144.09;67.84
8890;BME280;4481;43.406;24.454;2023-02-16T12:10:38;78089.84;;;-144.09;66.47
8890;BME280;4481;43.406;24.454;2023-02-16T12:13:12;78096.09;;;-144.09;66.89
8890;BME280;4481;43.406;24.454;2023-02-16T12:15:47;78075.19;;;-144.09;67.67
8890;BME280;4481;43.406;24.454;2023-02-16T12:18:26;78064.75;;;-144.09;66.64
8890;BME280;4481;43.406;24.454;2023-02-16T12:21:02;78062.66;;;-144.09;66.84
8890;BME280;4481;43.406;24.454;2023-02-16T12:23:38;78045.94;;;-144.09;66.46
8890;BME280;4481;43.406;24.454;2023-02-16T12:26:24;78027.13;;;-144.09;65.60
8890;BME280;4481;43.406;24.454;2023-02-16T12:29:02;78027.13;;;-144.09;65.62
8890;BME280;4481;43.406;24.454;2023-02-16T12:31:43;78012.50;;;-144.09;65.47
8890;BME280;4481;43.406;24.454;2023-02-16T12:34:19;78002.03;;;-144.09;66.39
8890;BME280;4481;43.406;24.454;2023-02-16T12:36:56;77993.69;;;-144.09;65.20
8890;BME280;4481;43.406;24.454;2023-02-16T12:39:29;77981.13;;;-144.09;65.71
8890;BME280;4481;43.406;24.454;2023-02-16T12:44:55;77968.59;;;-144.09;65.20
8890;BME280;4481;43.406;24.454;2023-02-16T12:47:28;77945.59;;;-144.09;65.55
8890;BME280;4481;43.406;24.454;2023-02-16T12:49:59;77939.31;;;-144.09;65.03
8890;BME280;4481;43.406;24.454;2023-02-16T12:52:32;77922.59;;;-144.09;64.71
8890;BME280;4481;43.406;24.454;2023-02-16T12:55:09;77918.41;;;-144.09;64.28
8890;BME280;4481;43.406;24.454;2023-02-16T12:57:39;77907.97;;;-144.09;63.57
8890;BME280;4481;43.406;24.454;2023-02-16T13:00:18;77922.59;;;-144.09;63.32
8890;BME280;4481;43.406;24.454;2023-02-16T13:02:49;77968.59;;;-144.09;64.56
8890;BME280;4481;43.406;24.454;2023-02-16T13:05:21;77937.22;;;-144.09;63.71
8890;BME280;4481;43.406;24.454;2023-02-16T13:07:53;77914.25;;;-144.09;62.89
8890;BME280;4481;43.406;24.454;2023-02-16T13:10:23;77895.44;;;-144.09;62.55